createdAt,value
2024-03-14T00:02:01.399Z,2.83
2024-03-14T00:04:27.968Z,2.20
2024-03-14T00:06:54.681Z,2.60
2024-03-14T00:09:24.043Z,2.20
2024-03-14T00:11:50.970Z,2.30
2024-03-14T00:14:17.789Z,2.10
2024-03-14T00:16:44.415Z,2.10
2024-03-14T00:19:10.995Z,2.20
2024-03-14T00:21:40.584Z,2.00
2024-03-14T00:24:09.327Z,2.40
2024-03-14T00:26:35.937Z,2.20
2024-03-14T00:29:02.700Z,2.30
2024-03-14T00:31:30.824Z,2.50
2024-03-14T00:33:57.897Z,2.40
2024-03-14T00:36:24.843Z,1.70
2024-03-14T00:38:52.078Z,2.00
2024-03-14T00:41:18.800Z,2.10
2024-03-14T00:43:45.329Z,2.20
2024-03-14T00:46:12.077Z,2.00
2024-03-14T00:48:39.146Z,2.33
2024-03-14T00:51:07.788Z,1.90
2024-03-14T00:53:35.208Z,1.70
2024-03-14T00:56:02.372Z,1.90
2024-03-14T00:58:30.047Z,1.70
2024-03-14T01:00:57.215Z,1.73
2024-03-14T01:03:23.849Z,1.90
2024-03-14T01:05:50.706Z,1.97
2024-03-14T01:08:17.387Z,1.93
2024-03-14T01:10:44.480Z,2.03
2024-03-14T01:13:13.610Z,2.20
2024-03-14T01:15:40.339Z,1.93
2024-03-14T01:18:07.576Z,1.83
2024-03-14T01:20:34.839Z,1.77
2024-03-14T01:23:01.716Z,2.10
2024-03-14T01:25:28.342Z,1.80
2024-03-14T01:27:55.037Z,1.80
2024-03-14T01:30:22.422Z,1.90
2024-03-14T01:32:51.090Z,1.87
2024-03-14T01:35:18.210Z,2.27
2024-03-14T01:37:44.861Z,1.70
2024-03-14T01:40:14.650Z,1.90
2024-03-14T01:42:44.892Z,2.10
2024-03-14T01:45:16.224Z,1.67
2024-03-14T01:47:45.304Z,1.90
2024-03-14T01:50:12.433Z,1.73
2024-03-14T01:52:39.205Z,1.47
2024-03-14T01:55:06.002Z,1.87
2024-03-14T01:57:33.056Z,1.63
2024-03-14T02:00:00.726Z,1.70
2024-03-14T02:02:27.819Z,1.60
2024-03-14T02:05:13.043Z,1.50
2024-03-14T02:07:40.810Z,1.70
2024-03-14T02:10:09.573Z,1.60
2024-03-14T02:12:36.262Z,1.90
2024-03-14T02:15:04.163Z,1.80
2024-03-14T02:17:31.042Z,1.80
2024-03-14T02:19:57.761Z,1.90
2024-03-14T02:22:25.068Z,1.60
2024-03-14T02:24:54.548Z,1.90
2024-03-14T02:27:21.532Z,1.40
2024-03-14T02:29:48.219Z,1.63
2024-03-14T02:32:14.916Z,1.60
2024-03-14T02:34:41.594Z,1.30
2024-03-14T02:37:08.310Z,1.70
2024-03-14T02:39:35.486Z,1.60
2024-03-14T02:42:02.632Z,1.60
2024-03-14T02:44:29.842Z,1.87
2024-03-14T02:50:42.572Z,1.80
2024-03-14T02:53:09.243Z,1.50
2024-03-14T02:55:35.802Z,1.60
2024-03-14T02:58:02.439Z,1.60
2024-03-14T03:00:29.236Z,2.47
2024-03-14T03:02:56.310Z,1.63
2024-03-14T03:05:22.922Z,1.90
2024-03-14T03:07:50.316Z,1.80
2024-03-14T03:10:17.681Z,1.90
2024-03-14T03:12:45.772Z,1.70
2024-03-14T03:15:12.663Z,1.47
2024-03-14T03:17:40.720Z,1.70
2024-03-14T03:20:13.940Z,1.67
2024-03-14T03:22:59.717Z,1.47
2024-03-14T03:25:26.509Z,3.63
2024-03-14T03:27:53.148Z,1.97
2024-03-14T03:30:20.818Z,1.50
2024-03-14T03:32:47.649Z,1.60
2024-03-14T03:35:21.422Z,1.57
2024-03-14T03:37:49.778Z,2.60
2024-03-14T03:40:22.787Z,1.67
2024-03-14T03:42:49.882Z,1.97
2024-03-14T03:45:16.721Z,2.33
2024-03-14T03:47:43.439Z,2.93
2024-03-14T03:50:10.411Z,1.50
2024-03-14T03:52:37.455Z,1.97
2024-03-14T03:55:07.604Z,1.50
2024-03-14T03:57:35.128Z,2.10
2024-03-14T04:00:08.998Z,2.20
2024-03-14T04:02:35.957Z,1.90
2024-03-14T04:05:03.442Z,2.90
2024-03-14T04:07:31.413Z,1.90
2024-03-14T04:09:58.602Z,1.70
2024-03-14T04:12:25.362Z,1.63
2024-03-14T04:14:52.966Z,1.33
2024-03-14T04:17:19.823Z,1.33
2024-03-14T04:19:47.273Z,1.90
2024-03-14T04:22:15.616Z,1.47
2024-03-14T04:24:45.162Z,1.43
2024-03-14T04:27:11.969Z,1.33
2024-03-14T04:29:38.520Z,1.43
2024-03-14T04:32:05.110Z,1.87
2024-03-14T04:34:31.745Z,1.80
2024-03-14T04:36:58.289Z,1.43
2024-03-14T04:39:25.187Z,1.70
2024-03-14T04:41:54.227Z,2.27
2024-03-14T04:44:21.295Z,1.30
2024-03-14T04:46:48.279Z,2.50
2024-03-14T04:49:14.950Z,1.20
2024-03-14T04:51:47.312Z,1.60
2024-03-14T04:54:15.614Z,1.97
2024-03-14T04:56:42.271Z,2.27
2024-03-14T04:59:14.076Z,1.53
2024-03-14T05:01:40.595Z,1.93
2024-03-14T05:04:10.492Z,2.37
2024-03-14T05:06:37.978Z,2.37
2024-03-14T05:09:05.968Z,1.90
2024-03-14T05:11:32.918Z,2.90
2024-03-14T05:13:59.596Z,1.37
2024-03-14T05:16:27.464Z,1.67
2024-03-14T05:18:54.119Z,3.50
2024-03-14T05:21:20.779Z,1.60
2024-03-14T05:23:47.639Z,1.00
2024-03-14T05:26:14.289Z,1.13
2024-03-14T05:28:40.870Z,1.77
2024-03-14T05:31:07.486Z,1.63
2024-03-14T05:33:34.224Z,2.60
2024-03-14T05:36:00.932Z,3.10
2024-03-14T05:38:27.631Z,1.90
2024-03-14T05:40:54.440Z,2.13
2024-03-14T05:43:21.027Z,1.90
2024-03-14T05:45:47.735Z,2.50
2024-03-14T05:48:14.651Z,2.90
2024-03-14T05:50:43.518Z,6.77
2024-03-14T05:53:10.604Z,2.93
2024-03-14T05:55:37.692Z,2.70
2024-03-14T05:58:04.401Z,2.40
2024-03-14T06:00:31.182Z,2.93
2024-03-14T06:02:57.818Z,2.90
2024-03-14T06:05:24.605Z,3.03
2024-03-14T06:07:51.997Z,2.20
2024-03-14T06:10:20.304Z,4.00
2024-03-14T06:12:47.132Z,2.20
2024-03-14T06:15:14.042Z,4.13
2024-03-14T06:17:42.228Z,4.50
2024-03-14T06:20:09.137Z,3.60
2024-03-14T06:22:37.654Z,4.27
2024-03-14T06:25:05.910Z,2.80
2024-03-14T06:27:32.847Z,2.63
2024-03-14T06:29:59.522Z,2.80
2024-03-14T06:32:26.217Z,3.30
2024-03-14T06:34:52.885Z,2.63
2024-03-14T06:37:20.110Z,3.00
2024-03-14T06:39:48.399Z,2.83
2024-03-14T06:42:16.650Z,2.53
2024-03-14T06:44:43.766Z,2.83
2024-03-14T06:47:10.646Z,2.93
2024-03-14T06:49:39.248Z,2.37
2024-03-14T06:52:07.367Z,2.40
2024-03-14T06:54:34.258Z,1.93
2024-03-14T06:57:01.958Z,2.10
2024-03-14T06:59:29.643Z,1.70
2024-03-14T07:01:57.299Z,1.47
2024-03-14T07:04:24.001Z,1.40
2024-03-14T07:06:50.683Z,1.40
2024-03-14T07:09:19.201Z,1.47
2024-03-14T07:11:47.204Z,1.90
2024-03-14T07:14:13.935Z,2.10
2024-03-14T07:16:40.555Z,1.80
2024-03-14T07:19:08.356Z,1.77
2024-03-14T07:21:35.167Z,1.57
2024-03-14T07:24:01.919Z,1.50
2024-03-14T07:30:32.262Z,1.37
2024-03-14T07:33:02.235Z,1.23
2024-03-14T07:35:29.020Z,1.57
2024-03-14T07:37:55.543Z,1.63
2024-03-14T07:40:31.672Z,1.40
2024-03-14T07:42:58.243Z,1.60
2024-03-14T07:45:24.854Z,1.80
2024-03-14T07:47:54.119Z,1.50
2024-03-14T07:50:23.830Z,1.83
2024-03-14T07:52:50.437Z,1.60
2024-03-14T07:55:18.468Z,1.40
2024-03-14T07:57:45.320Z,1.37
2024-03-14T08:00:16.494Z,1.50
2024-03-14T08:02:43.520Z,1.77
2024-03-14T08:05:10.187Z,1.50
2024-03-14T08:07:40.037Z,1.60
2024-03-14T08:10:09.298Z,1.80
2024-03-14T08:12:35.945Z,2.10
2024-03-14T08:15:32.099Z,2.00
2024-03-14T08:18:00.823Z,1.90
2024-03-14T08:20:27.516Z,2.20
2024-03-14T08:22:55.399Z,2.35
2024-03-14T08:25:25.634Z,1.80
2024-03-14T08:27:52.838Z,1.70
2024-03-14T08:30:20.860Z,1.90
2024-03-14T08:32:47.577Z,1.63
2024-03-14T08:35:15.657Z,1.80
2024-03-14T08:37:45.401Z,2.35
2024-03-14T08:40:13.202Z,2.20
2024-03-14T08:42:46.176Z,2.42
2024-03-14T08:45:15.887Z,2.22
2024-03-14T08:47:44.046Z,2.30
2024-03-14T08:50:11.113Z,2.17
2024-03-14T08:52:38.347Z,2.25
2024-03-14T08:55:24.244Z,2.38
2024-03-14T08:57:52.686Z,2.03
2024-03-14T09:00:23.320Z,2.63
2024-03-14T09:02:50.861Z,2.25
2024-03-14T09:05:21.651Z,3.05
2024-03-14T09:07:48.350Z,3.20
2024-03-14T09:10:17.596Z,2.75
2024-03-14T09:12:44.952Z,3.08
2024-03-14T09:15:13.593Z,3.53
2024-03-14T09:17:40.497Z,2.88
2024-03-14T09:20:09.845Z,2.92
2024-03-14T09:22:39.333Z,3.13
2024-03-14T09:25:08.187Z,2.70
2024-03-14T09:27:34.841Z,2.88
2024-03-14T09:30:01.842Z,2.60
2024-03-14T09:32:31.256Z,1.90
2024-03-14T09:34:59.374Z,2.50
2024-03-14T09:37:26.396Z,2.10
2024-03-14T09:39:53.257Z,2.00
2024-03-14T09:42:21.689Z,2.58
2024-03-14T09:44:49.000Z,1.98
2024-03-14T09:47:38.830Z,1.70
2024-03-14T09:50:07.869Z,2.08
2024-03-14T09:52:35.243Z,1.90
2024-03-14T09:55:04.024Z,1.80
2024-03-14T09:57:30.729Z,2.05
2024-03-14T09:59:58.444Z,1.90
2024-03-14T10:02:29.449Z,1.65
2024-03-14T10:04:56.633Z,1.83
2024-03-14T10:07:23.215Z,2.40
2024-03-14T10:09:53.312Z,2.20
2024-03-14T10:12:22.714Z,1.73
2024-03-14T10:15:17.784Z,1.98
2024-03-14T10:17:44.615Z,1.50
2024-03-14T10:20:14.420Z,1.42
2024-03-14T10:22:42.118Z,1.58
2024-03-14T10:25:15.595Z,1.40
2024-03-14T10:27:50.283Z,1.88
2024-03-14T10:30:23.759Z,1.40
2024-03-14T10:32:50.565Z,1.30
2024-03-14T10:35:17.424Z,1.23
2024-03-14T10:37:50.313Z,1.42
2024-03-14T10:40:29.207Z,1.17
2024-03-14T10:42:57.137Z,1.30
2024-03-14T10:45:26.090Z,1.40
2024-03-14T10:47:52.898Z,1.10
2024-03-14T10:50:20.777Z,1.00
2024-03-14T10:52:50.549Z,1.20
2024-03-14T10:55:25.436Z,1.27
2024-03-14T10:57:52.844Z,1.10
2024-03-14T11:00:23.084Z,0.80
2024-03-14T11:02:51.296Z,0.80
2024-03-14T11:05:24.874Z,0.85
2024-03-14T11:07:57.833Z,1.30
2024-03-14T11:10:29.614Z,1.10
2024-03-14T11:13:06.447Z,1.30
2024-03-14T11:15:38.145Z,1.20
2024-03-14T11:18:18.229Z,1.10
2024-03-14T11:20:51.229Z,1.20
2024-03-14T11:23:21.006Z,1.20
2024-03-14T11:25:53.835Z,1.30
2024-03-14T11:28:21.828Z,1.33
2024-03-14T11:30:56.496Z,1.50
2024-03-14T11:33:28.068Z,1.00
2024-03-14T11:35:59.478Z,0.95
2024-03-14T11:38:29.750Z,1.13
2024-03-14T11:41:07.627Z,1.10
2024-03-14T11:43:35.239Z,1.38
2024-03-14T11:46:06.424Z,1.17
2024-03-14T11:48:34.687Z,1.15
2024-03-14T11:51:02.728Z,1.20
2024-03-14T11:53:33.672Z,1.30
2024-03-14T11:56:07.157Z,0.90
2024-03-14T11:58:42.784Z,1.20
2024-03-14T12:01:19.355Z,1.00
2024-03-14T12:03:51.262Z,0.98
2024-03-14T12:06:19.268Z,1.15
2024-03-14T12:08:48.787Z,1.30
2024-03-14T12:11:15.611Z,1.02
2024-03-14T12:13:48.866Z,0.80
2024-03-14T12:16:17.254Z,0.80
2024-03-14T12:18:48.667Z,0.90
2024-03-14T12:21:16.697Z,0.68
2024-03-14T12:23:56.859Z,0.90
2024-03-14T12:26:24.411Z,0.98
2024-03-14T12:28:52.194Z,0.90
2024-03-14T12:31:20.567Z,0.73
2024-03-14T12:33:47.750Z,0.80
2024-03-14T12:36:18.524Z,0.82
2024-03-14T12:38:51.224Z,0.80
2024-03-14T12:41:19.895Z,0.80
2024-03-14T12:43:49.958Z,0.70
2024-03-14T12:46:20.705Z,0.85
2024-03-14T12:48:48.927Z,0.70
2024-03-14T12:51:24.322Z,0.80
2024-03-14T12:53:56.276Z,0.80
2024-03-14T12:56:26.793Z,0.90
2024-03-14T12:58:55.875Z,0.73
2024-03-14T13:01:32.044Z,0.60
2024-03-14T13:04:00.992Z,0.60
2024-03-14T13:06:30.892Z,0.90
2024-03-14T13:09:18.133Z,0.63
2024-03-14T13:12:20.566Z,0.80
2024-03-14T13:15:12.148Z,0.70
2024-03-14T13:17:48.072Z,0.80
2024-03-14T13:20:26.310Z,0.60
2024-03-14T13:22:54.047Z,0.60
2024-03-14T13:25:22.787Z,0.50
2024-03-14T13:27:52.049Z,0.60
2024-03-14T13:30:22.011Z,0.40
2024-03-14T13:32:48.988Z,0.50
2024-03-14T13:35:22.968Z,0.40
2024-03-14T13:37:50.221Z,0.50
2024-03-14T13:42:46.878Z,0.50
2024-03-14T13:45:18.014Z,0.70
2024-03-14T13:47:47.274Z,0.55
2024-03-14T13:50:16.481Z,0.60
2024-03-14T13:52:49.191Z,0.40
2024-03-14T13:55:25.975Z,0.80
2024-03-14T13:57:53.510Z,2.80
2024-03-14T14:00:26.651Z,1.90
2024-03-14T14:03:00.233Z,0.75
2024-03-14T14:05:26.829Z,0.65
2024-03-14T14:07:56.723Z,0.80
2024-03-14T14:10:24.332Z,1.00
2024-03-14T14:12:52.064Z,0.90
2024-03-14T14:15:19.512Z,0.60
2024-03-14T14:17:46.381Z,1.70
2024-03-14T14:20:18.188Z,0.65
2024-03-14T14:22:46.422Z,0.60
2024-03-14T14:25:15.825Z,0.75
2024-03-14T14:27:46.117Z,0.60
2024-03-14T14:30:26.371Z,0.70
2024-03-14T14:32:56.130Z,0.57
2024-03-14T14:35:22.920Z,0.50
2024-03-14T14:37:50.299Z,0.60
2024-03-14T14:40:17.102Z,0.70
2024-03-14T14:42:44.352Z,0.60
2024-03-14T14:45:11.764Z,0.77
2024-03-14T14:47:41.523Z,0.77
2024-03-14T14:50:10.155Z,0.52
2024-03-14T14:52:41.282Z,0.60
2024-03-14T14:55:15.771Z,0.80
2024-03-14T14:57:43.617Z,0.70
2024-03-14T15:00:17.718Z,0.80
2024-03-14T15:02:47.718Z,0.63
2024-03-14T15:05:14.819Z,0.57
2024-03-14T15:07:45.254Z,0.85
2024-03-14T15:10:13.611Z,0.70
2024-03-14T15:12:49.713Z,0.63
2024-03-14T15:15:24.139Z,0.52
2024-03-14T15:17:51.590Z,0.70
2024-03-14T15:20:22.187Z,0.68
2024-03-14T15:22:49.738Z,0.68
2024-03-14T15:25:21.902Z,0.80
2024-03-14T15:27:48.974Z,0.90
2024-03-14T15:30:17.696Z,0.63
2024-03-14T15:32:45.402Z,0.85
2024-03-14T15:35:13.118Z,0.55
2024-03-14T15:37:40.075Z,0.80
2024-03-14T15:40:15.597Z,0.60
2024-03-14T15:42:43.225Z,0.80
2024-03-14T15:45:17.601Z,0.60
2024-03-14T15:47:47.000Z,0.70
2024-03-14T15:50:14.728Z,0.73
2024-03-14T15:52:41.449Z,0.63
2024-03-14T15:55:09.595Z,0.68
2024-03-14T15:57:37.120Z,0.70
2024-03-14T16:00:06.564Z,0.70
2024-03-14T16:02:40.456Z,0.57
2024-03-14T16:05:09.825Z,0.90
2024-03-14T16:07:42.838Z,0.80
2024-03-14T16:10:11.348Z,0.75
2024-03-14T16:12:38.873Z,0.77
2024-03-14T16:15:08.094Z,0.90
2024-03-14T16:17:34.759Z,0.70
2024-03-14T16:20:19.200Z,1.02
2024-03-14T16:22:46.913Z,0.82
2024-03-14T16:25:18.245Z,1.10
2024-03-14T16:27:45.840Z,1.20
2024-03-14T16:30:12.891Z,1.30
2024-03-14T16:32:39.564Z,1.15
2024-03-14T16:35:08.239Z,1.20
2024-03-14T16:37:35.157Z,1.10
2024-03-14T16:40:02.029Z,1.38
2024-03-14T16:42:31.736Z,1.50
2024-03-14T16:44:58.308Z,1.40
2024-03-14T16:47:25.320Z,1.38
2024-03-14T16:49:52.722Z,1.48
2024-03-14T16:52:19.326Z,1.40
2024-03-14T16:54:45.947Z,1.50
2024-03-14T16:57:12.591Z,1.60
2024-03-14T16:59:39.819Z,1.73
2024-03-14T17:02:09.226Z,1.60
2024-03-14T17:04:35.853Z,1.40
2024-03-14T17:07:02.575Z,1.60
2024-03-14T17:09:31.082Z,1.70
2024-03-14T17:11:57.743Z,1.60
2024-03-14T17:14:24.453Z,1.50
2024-03-14T17:16:58.310Z,1.73
2024-03-14T17:19:29.510Z,1.88
2024-03-14T17:21:56.015Z,1.52
2024-03-14T17:24:22.608Z,1.25
2024-03-14T17:26:50.003Z,1.30
2024-03-14T17:29:17.166Z,1.73
2024-03-14T17:31:43.755Z,1.40
2024-03-14T17:34:11.181Z,1.80
2024-03-14T17:36:37.951Z,1.67
2024-03-14T17:39:05.173Z,1.60
2024-03-14T17:41:32.364Z,1.60
2024-03-14T17:44:00.620Z,1.60
2024-03-14T17:46:29.075Z,1.40
2024-03-14T17:48:57.219Z,1.60
2024-03-14T17:51:25.863Z,1.50
2024-03-14T17:53:52.532Z,1.50
2024-03-14T17:56:25.621Z,1.45
2024-03-14T17:58:59.427Z,1.20
2024-03-14T18:01:27.451Z,1.60
2024-03-14T18:03:54.017Z,1.83
2024-03-14T18:06:20.724Z,1.80
2024-03-14T18:08:47.369Z,1.70
2024-03-14T18:11:13.976Z,1.80
2024-03-14T18:13:40.870Z,2.10
2024-03-14T18:16:07.920Z,1.80
2024-03-14T18:18:34.802Z,2.70
2024-03-14T18:21:01.342Z,2.30
2024-03-14T18:23:29.084Z,2.58
2024-03-14T18:25:56.833Z,3.00
2024-03-14T18:28:24.556Z,3.13
2024-03-14T18:30:51.250Z,3.45
2024-03-14T18:33:18.667Z,4.03
2024-03-14T18:35:45.295Z,1.92
2024-03-14T18:38:11.920Z,2.13
2024-03-14T18:40:41.519Z,2.40
2024-03-14T18:43:08.293Z,1.83
2024-03-14T18:45:35.214Z,1.73
2024-03-14T18:48:04.838Z,1.70
2024-03-14T18:50:32.562Z,1.77
2024-03-14T18:52:59.098Z,1.83
2024-03-14T18:55:25.825Z,2.00
2024-03-14T18:57:53.775Z,1.98
2024-03-14T19:00:21.719Z,1.95
2024-03-14T19:02:49.580Z,1.88
2024-03-14T19:05:16.989Z,3.63
2024-03-14T19:07:43.800Z,3.28
2024-03-14T19:10:11.745Z,3.80
2024-03-14T19:12:39.340Z,2.70
2024-03-14T19:15:07.126Z,2.22
2024-03-14T19:17:34.128Z,2.10
2024-03-14T19:20:03.736Z,2.50
2024-03-14T19:22:31.554Z,2.90
2024-03-14T19:24:58.966Z,1.85
2024-03-14T19:27:25.763Z,1.98
2024-03-14T19:29:52.556Z,2.10
2024-03-14T19:32:23.177Z,1.80
2024-03-14T19:34:49.955Z,1.75
2024-03-14T19:37:18.054Z,1.60
2024-03-14T19:39:45.214Z,1.92
2024-03-14T19:46:07.139Z,1.60
2024-03-14T19:48:33.722Z,1.75
2024-03-14T19:51:01.353Z,1.60
2024-03-14T19:53:29.100Z,1.98
2024-03-14T19:55:55.659Z,1.90
2024-03-14T19:58:23.776Z,1.90
2024-03-14T20:00:53.851Z,1.85
2024-03-14T20:03:20.507Z,1.80
2024-03-14T20:05:47.636Z,2.00
2024-03-14T20:08:14.373Z,2.40
2024-03-14T20:10:41.096Z,2.30
2024-03-14T20:13:07.972Z,2.42
2024-03-14T20:15:34.819Z,2.47
2024-03-14T20:18:02.024Z,2.80
2024-03-14T20:20:29.097Z,2.10
2024-03-14T20:22:55.846Z,2.20
2024-03-14T20:25:23.721Z,2.37
2024-03-14T20:27:50.882Z,2.42
2024-03-14T20:30:19.146Z,3.00
2024-03-14T20:32:46.505Z,2.80
2024-03-14T20:35:16.677Z,3.20
2024-03-14T20:37:43.723Z,2.40
2024-03-14T20:40:13.194Z,3.10
2024-03-14T20:42:40.016Z,3.55
2024-03-14T20:45:07.054Z,2.40
2024-03-14T20:47:33.728Z,2.30
2024-03-14T20:50:00.645Z,2.40
2024-03-14T20:52:27.863Z,3.67
2024-03-14T20:55:06.812Z,4.78
2024-03-14T20:57:39.714Z,3.75
2024-03-14T21:00:07.153Z,4.30
2024-03-14T21:02:38.592Z,5.67
2024-03-14T21:05:06.949Z,6.57
2024-03-14T21:07:34.006Z,5.60
2024-03-14T21:10:00.907Z,4.20
2024-03-14T21:12:28.362Z,4.53
2024-03-14T21:14:55.058Z,4.88
2024-03-14T21:17:21.791Z,4.63
2024-03-14T21:19:48.572Z,5.53
2024-03-14T21:22:15.364Z,3.80
2024-03-14T21:24:44.591Z,4.88
2024-03-14T21:27:14.044Z,4.85
2024-03-14T21:29:41.302Z,3.60
2024-03-14T21:32:08.298Z,4.45
2024-03-14T21:34:36.687Z,4.23
2024-03-14T21:37:07.719Z,4.40
2024-03-14T21:39:39.245Z,3.73
2024-03-14T21:42:11.047Z,3.60
2024-03-14T21:44:46.254Z,4.40
2024-03-14T21:47:12.929Z,3.73
2024-03-14T21:49:39.568Z,4.30
2024-03-14T21:52:06.144Z,4.37
2024-03-14T21:54:32.947Z,4.53
2024-03-14T21:56:59.852Z,4.57
2024-03-14T21:59:27.022Z,5.60
2024-03-14T22:01:53.655Z,5.20
2024-03-14T22:04:20.370Z,5.40
2024-03-14T22:06:46.933Z,5.20
2024-03-14T22:09:13.585Z,5.40
2024-03-14T22:11:41.892Z,4.30
2024-03-14T22:14:09.584Z,3.90
2024-03-14T22:16:36.172Z,4.18
2024-03-14T22:19:03.479Z,4.17
2024-03-14T22:21:30.274Z,4.40
2024-03-14T22:23:56.962Z,4.30
2024-03-14T22:26:25.369Z,5.00
2024-03-14T22:28:52.053Z,4.80
2024-03-14T22:31:19.322Z,4.20
2024-03-14T22:33:46.015Z,4.90
2024-03-14T22:36:12.692Z,4.77
2024-03-14T22:38:39.759Z,4.63
2024-03-14T22:41:09.833Z,4.67
2024-03-14T22:43:38.575Z,4.37
2024-03-14T22:46:05.202Z,4.37
2024-03-14T22:48:31.862Z,4.20
2024-03-14T22:50:58.503Z,4.13
2024-03-14T22:53:25.056Z,5.07
2024-03-14T22:55:51.833Z,4.70
2024-03-14T22:58:18.475Z,4.73
2024-03-14T23:00:48.711Z,4.17
2024-03-14T23:03:16.807Z,4.90
2024-03-14T23:05:46.284Z,4.97
2024-03-14T23:08:16.753Z,4.23
2024-03-14T23:10:45.524Z,5.17
2024-03-14T23:13:15.498Z,5.40
2024-03-14T23:15:42.245Z,7.30
2024-03-14T23:18:09.147Z,7.77
2024-03-14T23:20:35.881Z,6.70
2024-03-14T23:23:04.143Z,5.93
2024-03-14T23:25:31.929Z,6.70
2024-03-14T23:27:59.507Z,5.27
2024-03-14T23:30:26.734Z,5.00
2024-03-14T23:32:54.007Z,5.50
2024-03-14T23:35:22.157Z,6.47
2024-03-14T23:37:49.265Z,5.17
2024-03-14T23:40:21.616Z,6.23
2024-03-14T23:42:48.265Z,5.50
2024-03-14T23:45:14.957Z,4.57
2024-03-14T23:47:44.923Z,5.27
2024-03-14T23:50:21.074Z,4.73
2024-03-14T23:52:51.010Z,4.60
2024-03-14T23:55:20.495Z,4.87
2024-03-14T23:57:47.861Z,4.40
